Time;durP1;ratioP1;P1;durP2;ratioP2;P2;SDS_P1;SDS_P2;PMS_P1;PMS_P2;Temp;Humidity;BMP_temperature;BMP_pressure;BME280_temperature;BME280_humidity;BME280_pressure;Samples;Min_cycle;Max_cycle;Signal;HPM_P1;HPM_P2
2022/04/21 00:00:31;;;;;;;17.65;10.65;;;7.10;75.70;;;;;;4181510;28;20061;-77
2022/04/21 00:02:33;;;;;;;12.52;9.23;;;7.20;75.80;;;;;;4181119;28;20144;-78
2022/04/21 00:04:35;;;;;;;11.15;8.23;;;7.10;76.20;;;;;;4181448;28;20560;-78
2022/04/21 00:06:37;;;;;;;14.52;8.63;;;7.00;76.50;;;;;;4182739;28;20160;-78
2022/04/21 00:08:38;;;;;;;10.65;8.27;;;7.00;76.80;;;;;;4182669;28;20945;-77
2022/04/21 00:10:40;;;;;;;12.40;8.05;;;6.90;77.10;;;;;;4182124;28;20097;-78
2022/04/21 00:12:42;;;;;;;12.68;8.25;;;6.90;77.20;;;;;;4194669;28;20088;-78
2022/04/21 00:14:44;;;;;;;8.65;7.38;;;7.00;77.10;;;;;;4186110;28;20792;-77
2022/04/21 00:16:46;;;;;;;6.95;5.97;;;7.00;77.30;;;;;;4174046;28;20084;-79
2022/04/21 00:18:48;;;;;;;5.03;4.32;;;7.00;77.30;;;;;;4179650;28;20800;-77
2022/04/21 00:20:50;;;;;;;4.70;4.22;;;6.90;77.40;;;;;;4198153;28;20819;-77
2022/04/21 00:25:12;;;;;;;9.05;7.53;;;6.90;77.70;;;;;;4199711;28;20068;-77
2022/04/21 00:27:14;;;;;;;9.40;7.10;;;6.90;78.10;;;;;;4196967;28;20096;-77
2022/04/21 00:29:17;;;;;;;7.07;5.75;;;6.80;78.50;;;;;;4178658;28;20057;-78
2022/04/21 00:31:18;;;;;;;26.58;14.55;;;6.70;79.90;;;;;;4178850;28;20049;-77
2022/04/21 00:33:21;;;;;;;57.90;33.20;;;6.70;79.20;;;;;;4166390;28;20097;-77
2022/04/21 00:35:22;;;;;;;46.83;25.98;;;6.70;79.50;;;;;;4184507;28;20060;-78
2022/04/21 00:37:24;;;;;;;42.05;23.77;;;6.60;79.60;;;;;;4168097;28;20061;-77
2022/04/21 00:39:27;;;;;;;20.50;14.07;;;6.60;79.60;;;;;;4182488;28;20049;-78
2022/04/21 00:41:29;;;;;;;10.55;6.70;;;6.60;79.80;;;;;;4181891;28;20786;-78
2022/04/21 00:43:31;;;;;;;16.23;10.13;;;6.60;80.20;;;;;;4190011;28;20896;-78
2022/04/21 00:45:33;;;;;;;11.70;8.70;;;6.60;80.30;;;;;;4197526;28;20063;-78
2022/04/21 00:47:40;;;;;;;5.07;4.68;;;6.60;80.30;;;;;;4167797;28;20200;-77
2022/04/21 00:49:43;;;;;;;4.78;4.38;;;6.60;79.70;;;;;;4180838;28;20266;-77
2022/04/21 00:51:45;;;;;;;5.38;4.60;;;6.70;79.60;;;;;;4172491;28;20818;-76
2022/04/21 00:53:47;;;;;;;6.03;5.15;;;6.60;80.20;;;;;;4190325;28;20099;-78
2022/04/21 00:55:49;;;;;;;7.28;4.78;;;6.60;80.60;;;;;;4180743;28;20100;-77
2022/04/21 00:57:53;;;;;;;6.82;5.82;;;6.60;80.80;;;;;;4165347;28;20152;-77
2022/04/21 00:59:55;;;;;;;6.60;5.70;;;6.60;80.70;;;;;;4170991;28;20155;-78
2022/04/21 01:04:19;;;;;;;7.47;6.32;;;6.50;81.60;;;;;;4181828;28;20061;-77
2022/04/21 01:06:22;;;;;;;7.00;5.82;;;6.40;82.10;;;;;;4174446;28;20058;-77
2022/04/21 01:08:24;;;;;;;7.43;5.28;;;6.30;82.30;;;;;;4165440;28;20195;-77
2022/04/21 01:10:27;;;;;;;5.95;5.35;;;6.30;82.50;;;;;;4179781;28;20057;-78
2022/04/21 01:12:30;;;;;;;5.95;5.35;;;6.20;82.70;;;;;;4181991;28;20164;-77
2022/04/21 01:14:32;;;;;;;6.05;5.32;;;6.30;83.00;;;;;;4193166;28;20091;-77
2022/04/21 01:16:34;;;;;;;5.43;5.03;;;6.20;83.00;;;;;;4178586;28;20093;-78
2022/04/21 01:18:36;;;;;;;6.50;5.05;;;6.20;84.30;;;;;;4166314;28;20169;-78
2022/04/21 01:20:38;;;;;;;9.32;5.55;;;6.20;83.80;;;;;;4166184;28;20060;-77
2022/04/21 01:22:39;;;;;;;6.53;5.63;;;6.10;83.90;;;;;;4180716;28;20061;-78
2022/04/21 01:24:41;;;;;;;7.90;5.40;;;6.10;84.00;;;;;;4180679;28;20053;-77
2022/04/21 01:26:43;;;;;;;5.28;4.78;;;6.10;84.00;;;;;;4178519;28;20064;-77
2022/04/21 01:28:45;;;;;;;7.93;5.10;;;6.20;83.90;;;;;;4186885;28;20179;-77
2022/04/21 01:30:47;;;;;;;10.63;5.05;;;6.20;83.80;;;;;;4169877;28;20180;-77
2022/04/21 01:32:49;;;;;;;11.07;4.65;;;6.20;83.80;;;;;;4181223;28;20053;-77
2022/04/21 01:34:51;;;;;;;4.75;4.38;;;6.20;83.50;;;;;;4177228;28;20053;-77
2022/04/21 01:41:35;;;;;;;8.35;5.05;;;6.20;84.00;;;;;;4167431;28;20877;-77
2022/04/21 01:43:37;;;;;;;5.57;5.03;;;6.10;84.70;;;;;;4180134;28;20056;-77
2022/04/21 01:45:41;;;;;;;8.23;6.55;;;6.10;85.20;;;;;;4168647;28;20094;-77
2022/04/21 01:47:43;;;;;;;5.50;4.97;;;6.00;85.50;;;;;;4181102;28;20092;-77
2022/04/21 01:49:45;;;;;;;5.25;4.75;;;5.90;85.80;;;;;;4179343;28;20057;-78
2022/04/21 01:51:46;;;;;;;7.97;5.63;;;5.90;85.90;;;;;;4196220;28;20057;-77
2022/04/21 01:53:48;;;;;;;11.00;7.13;;;5.80;86.20;;;;;;4191559;28;20041;-77
2022/04/21 01:55:51;;;;;;;21.00;9.95;;;5.80;86.30;;;;;;4181488;28;20092;-77
2022/04/21 01:57:53;;;;;;;18.50;11.45;;;5.80;86.70;;;;;;4184783;28;20161;-77
2022/04/21 01:59:55;;;;;;;35.03;17.80;;;5.80;86.50;;;;;;4180778;28;20065;-77
2022/04/21 02:01:57;;;;;;;35.20;17.70;;;5.90;86.40;;;;;;4163140;28;20061;-77
2022/04/21 02:03:58;;;;;;;19.13;10.02;;;5.90;86.40;;;;;;4164664;28;20698;-77
2022/04/21 02:06:00;;;;;;;13.57;7.85;;;6.00;86.10;;;;;;4164662;28;20053;-77
2022/04/21 02:08:03;;;;;;;8.10;7.30;;;5.90;86.20;;;;;;4179958;28;20675;-77
2022/04/21 02:10:06;;;;;;;10.15;6.90;;;6.00;86.90;;;;;;4177694;23;20101;-74
2022/04/21 02:12:08;;;;;;;7.65;5.80;;;6.00;86.70;;;;;;4177598;28;20058;-75
2022/04/21 02:14:10;;;;;;;7.97;6.05;;;6.00;86.80;;;;;;4170444;28;20058;-74
2022/04/21 02:16:11;;;;;;;7.70;6.13;;;6.10;87.00;;;;;;4176558;28;20777;-75
2022/04/21 02:18:13;;;;;;;13.23;6.50;;;6.10;86.70;;;;;;4176965;28;20058;-76
2022/04/21 02:20:16;;;;;;;8.05;6.45;;;6.10;86.80;;;;;;4168600;28;21787;-75
2022/04/21 02:22:18;;;;;;;6.80;5.95;;;6.10;86.60;;;;;;4168310;28;20576;-75
2022/04/21 02:24:20;;;;;;;11.85;6.22;;;6.20;86.40;;;;;;4174415;28;20867;-76
2022/04/21 02:26:21;;;;;;;6.70;6.18;;;6.20;86.30;;;;;;4179849;28;20181;-75
2022/04/21 02:28:25;;;;;;;9.52;7.03;;;6.20;86.80;;;;;;4167427;28;20169;-76
2022/04/21 02:30:26;;;;;;;7.70;6.78;;;6.20;86.80;;;;;;4173386;28;20087;-76
2022/04/21 02:32:28;;;;;;;7.25;6.60;;;6.20;86.80;;;;;;4164013;28;20064;-76
2022/04/21 02:34:30;;;;;;;6.68;5.90;;;6.20;87.00;;;;;;4175128;28;20160;-75
2022/04/21 02:36:32;;;;;;;6.32;5.78;;;6.20;87.10;;;;;;4176632;28;20065;-75
2022/04/21 02:38:34;;;;;;;7.65;6.57;;;6.20;87.00;;;;;;4175599;28;20892;-76
2022/04/21 02:40:35;;;;;;;6.68;6.07;;;6.10;87.20;;;;;;4174241;28;20064;-76
2022/04/21 02:42:38;;;;;;;7.75;7.00;;;6.10;87.50;;;;;;4166060;28;20064;-76
2022/04/21 02:44:40;;;;;;;8.05;6.72;;;6.10;87.60;;;;;;4176941;28;20104;-75
2022/04/21 02:46:42;;;;;;;8.60;6.68;;;6.10;87.80;;;;;;4165878;28;20750;-75
2022/04/21 02:48:43;;;;;;;7.60;6.90;;;6.10;87.80;;;;;;4178987;28;20060;-75
2022/04/21 02:50:48;;;;;;;9.40;6.75;;;6.00;88.20;;;;;;4177530;28;20056;-75
2022/04/21 02:52:49;;;;;;;9.20;8.30;;;5.90;88.60;;;;;;4176822;28;20832;-75
2022/04/21 02:57:21;;;;;;;10.77;7.70;;;5.80;89.20;;;;;;4174904;28;20054;-75
2022/04/21 02:59:22;;;;;;;9.05;7.55;;;5.80;89.10;;;;;;4171669;28;20058;-76
2022/04/21 03:01:24;;;;;;;10.50;7.15;;;5.80;89.10;;;;;;4176120;28;20058;-76
2022/04/21 03:03:26;;;;;;;11.10;7.03;;;5.80;89.50;;;;;;4175194;28;20057;-75
2022/04/21 03:05:28;;;;;;;10.60;8.77;;;5.90;89.50;;;;;;4171794;28;20245;-75
2022/04/21 03:07:29;;;;;;;8.77;7.63;;;5.90;89.20;;;;;;4174268;28;20099;-76
2022/04/21 03:09:32;;;;;;;7.40;6.43;;;5.90;89.30;;;;;;4177994;28;20089;-76
2022/04/21 03:11:34;;;;;;;8.20;7.38;;;5.80;89.20;;;;;;4176572;28;20662;-75
2022/04/21 03:13:36;;;;;;;10.90;7.57;;;5.80;89.40;;;;;;4179342;28;20694;-75
2022/04/21 03:15:37;;;;;;;9.15;7.80;;;5.70;89.70;;;;;;4178168;28;20888;-75
2022/04/21 03:17:40;;;;;;;7.53;6.90;;;5.70;90.00;;;;;;4162797;28;20088;-75
2022/04/21 03:19:42;;;;;;;9.68;7.75;;;5.70;90.10;;;;;;4181514;28;20727;-75
2022/04/21 03:24:19;;;;;;;9.23;7.85;;;5.70;90.10;;;;;;4178101;28;20065;-77
2022/04/21 03:26:21;;;;;;;7.55;6.85;;;5.70;90.00;;;;;;4160925;28;20097;-75
2022/04/21 03:28:23;;;;;;;7.32;6.63;;;5.70;90.00;;;;;;4165863;28;20160;-75
2022/04/21 03:30:25;;;;;;;9.07;7.40;;;5.70;90.30;;;;;;4180316;28;20089;-75
2022/04/21 03:32:26;;;;;;;7.82;7.00;;;5.60;90.50;;;;;;4176190;28;20097;-75
2022/04/21 03:34:28;;;;;;;8.95;6.95;;;5.70;90.30;;;;;;4179300;28;21280;-76
2022/04/21 03:36:31;;;;;;;9.43;7.93;;;5.60;90.40;;;;;;4183817;28;20788;-76
2022/04/21 03:38:32;;;;;;;10.18;7.22;;;5.60;90.30;;;;;;4181636;28;20061;-76
2022/04/21 03:40:34;;;;;;;11.13;7.45;;;5.60;90.40;;;;;;4179116;28;20108;-76
2022/04/21 03:42:36;;;;;;;8.82;7.82;;;5.70;90.20;;;;;;4178106;28;20763;-75
2022/04/21 03:44:40;;;;;;;9.27;7.60;;;5.70;90.40;;;;;;4179976;28;20891;-76
2022/04/21 03:46:42;;;;;;;12.15;8.27;;;5.70;90.40;;;;;;4178686;28;20127;-76
2022/04/21 03:48:44;;;;;;;8.30;7.50;;;5.70;90.30;;;;;;4179939;28;20108;-76
2022/04/21 03:50:46;;;;;;;10.57;8.07;;;5.60;90.60;;;;;;4170185;28;20068;-76
2022/04/21 03:52:47;;;;;;;14.48;9.38;;;5.50;90.70;;;;;;4169673;28;20808;-75
2022/04/21 03:54:49;;;;;;;11.73;7.82;;;5.40;91.00;;;;;;4174752;28;20795;-76
2022/04/21 03:56:51;;;;;;;10.50;8.07;;;5.40;91.10;;;;;;4177208;28;20054;-75
2022/04/21 03:58:52;;;;;;;9.52;8.73;;;5.30;91.10;;;;;;4168455;28;20156;-76
2022/04/21 04:00:54;;;;;;;8.52;7.68;;;5.40;91.20;;;;;;4168371;28;20056;-75
2022/04/21 04:02:56;;;;;;;13.82;7.63;;;5.40;91.10;;;;;;4170757;28;20069;-76
2022/04/21 04:05:00;;;;;;;9.15;8.00;;;5.40;91.00;;;;;;4165225;28;20077;-76
2022/04/21 04:11:44;;;;;;;8.98;7.03;;;5.50;90.60;;;;;;4177799;28;20122;-76
2022/04/21 04:13:45;;;;;;;9.77;7.80;;;5.50;91.10;;;;;;4174231;28;20057;-75
2022/04/21 04:15:49;;;;;;;10.18;8.75;;;5.50;91.10;;;;;;4174735;28;20089;-75
2022/04/21 04:17:50;;;;;;;9.25;8.35;;;5.50;91.30;;;;;;4178656;28;20180;-75
2022/04/21 04:19:52;;;;;;;9.43;8.52;;;5.40;91.20;;;;;;4174160;28;20169;-76
2022/04/21 04:21:54;;;;;;;8.63;7.70;;;5.40;91.40;;;;;;4175875;28;20666;-76
2022/04/21 04:24:00;;;;;;;11.52;7.55;;;5.40;91.70;;;;;;4179149;28;20060;-75
2022/04/21 04:26:01;;;;;;;8.73;7.93;;;5.40;91.90;;;;;;4162198;28;20149;-75
2022/04/21 04:28:04;;;;;;;10.70;8.68;;;5.40;91.50;;;;;;4170928;28;20160;-76
2022/04/21 04:30:08;;;;;;;8.02;7.30;;;5.30;91.70;;;;;;4173450;28;20061;-76
2022/04/21 04:32:09;;;;;;;9.45;7.90;;;5.30;91.80;;;;;;4174762;28;20066;-76
2022/04/21 04:34:11;;;;;;;10.18;8.48;;;5.40;92.30;;;;;;4174798;28;20054;-76
2022/04/21 04:36:16;;;;;;;12.32;9.43;;;5.40;91.90;;;;;;4169700;28;20149;-76
2022/04/21 04:38:17;;;;;;;12.60;8.90;;;5.40;91.80;;;;;;4171244;28;20112;-76
2022/04/21 04:40:20;;;;;;;9.95;8.57;;;5.50;91.90;;;;;;4176279;28;20100;-76
2022/04/21 04:42:23;;;;;;;11.80;10.15;;;5.50;91.30;;;;;;4176650;28;20093;-76
2022/04/21 04:44:24;;;;;;;12.98;8.52;;;5.50;91.50;;;;;;4172982;28;20068;-76
2022/04/21 04:46:35;;;;;;;10.38;8.60;;;5.50;91.20;;;;;;4165573;28;20150;-75
2022/04/21 04:48:37;;;;;;;9.85;8.88;;;5.60;91.10;;;;;;4173721;28;20058;-75
2022/04/21 04:50:40;;;;;;;10.13;9.00;;;5.70;91.30;;;;;;4154958;28;20069;-75
2022/04/21 04:52:43;;;;;;;10.20;9.20;;;5.70;90.80;;;;;;4170198;28;20057;-76
2022/04/21 04:54:44;;;;;;;14.13;8.75;;;5.80;91.00;;;;;;4169162;28;20057;-75
2022/04/21 04:56:47;;;;;;;13.40;9.68;;;5.80;90.80;;;;;;4170795;28;20181;-76
2022/04/21 04:58:50;;;;;;;11.32;9.57;;;5.80;90.90;;;;;;4174412;28;20909;-76
2022/04/21 05:00:51;;;;;;;10.45;9.18;;;5.90;91.00;;;;;;4179965;28;20060;-76
2022/04/21 05:02:53;;;;;;;11.43;9.35;;;5.90;90.70;;;;;;4166183;28;20054;-76
2022/04/21 05:04:55;;;;;;;9.93;8.60;;;5.90;91.10;;;;;;4175584;28;20561;-75
2022/04/21 05:06:57;;;;;;;10.65;9.57;;;5.90;90.90;;;;;;4173817;28;20188;-75
2022/04/21 05:08:59;;;;;;;10.77;7.97;;;5.80;91.30;;;;;;4182551;28;20046;-75
2022/04/21 05:11:01;;;;;;;11.45;9.30;;;5.80;91.20;;;;;;4168388;28;20046;-76
2022/04/21 05:13:02;;;;;;;11.60;9.32;;;5.90;91.40;;;;;;4171551;28;20061;-76
2022/04/21 05:15:06;;;;;;;10.75;8.60;;;6.00;91.20;;;;;;4161199;28;20784;-76
2022/04/21 05:17:08;;;;;;;8.98;8.07;;;6.20;91.00;;;;;;4175714;28;20104;-76
2022/04/21 05:19:12;;;;;;;11.13;9.07;;;6.40;90.70;;;;;;4163344;28;20062;-76
2022/04/21 05:21:15;;;;;;;11.60;9.57;;;6.60;90.50;;;;;;4168890;28;20242;-76
2022/04/21 05:23:20;;;;;;;11.00;8.35;;;6.70;89.80;;;;;;4174806;28;20093;-76
2022/04/21 05:25:26;;;;;;;10.00;9.00;;;6.80;89.30;;;;;;4175511;28;20053;-76
2022/04/21 05:27:28;;;;;;;11.10;9.05;;;6.90;88.90;;;;;;4175245;28;20676;-75
2022/04/21 05:31:58;;;;;;;10.30;9.18;;;7.20;88.30;;;;;;4171602;28;20776;-76
2022/04/21 05:34:00;;;;;;;11.50;9.00;;;7.30;87.40;;;;;;4176546;28;20065;-76
2022/04/21 05:36:03;;;;;;;11.95;8.90;;;7.40;87.20;;;;;;4174767;28;20164;-76
2022/04/21 05:38:05;;;;;;;15.07;8.82;;;7.50;86.90;;;;;;4180983;28;20049;-76
2022/04/21 05:40:08;;;;;;;11.38;9.02;;;7.70;86.60;;;;;;4169657;28;20159;-76
2022/04/21 05:42:15;;;;;;;11.45;10.05;;;7.80;85.60;;;;;;4171861;28;20069;-75
2022/04/21 05:44:18;;;;;;;14.13;8.77;;;7.90;85.50;;;;;;4158099;28;20058;-76
2022/04/21 05:46:20;;;;;;;9.50;8.48;;;8.00;85.30;;;;;;4178661;28;20131;-76
2022/04/21 05:48:22;;;;;;;9.85;8.82;;;8.10;84.80;;;;;;4170786;28;20637;-75
2022/04/21 05:50:26;;;;;;;8.63;7.88;;;8.20;84.10;;;;;;4165178;28;20057;-76
2022/04/21 05:52:30;;;;;;;11.02;9.43;;;8.30;84.30;;;;;;4173698;28;20864;-75
2022/04/21 05:54:31;;;;;;;15.38;10.30;;;8.40;83.80;;;;;;4172699;28;20063;-76
2022/04/21 05:56:34;;;;;;;13.75;10.38;;;8.40;82.90;;;;;;4176276;28;20830;-76
2022/04/21 05:58:36;;;;;;;11.13;9.90;;;8.50;82.60;;;;;;4158086;28;20168;-76
2022/04/21 06:00:38;;;;;;;13.55;10.15;;;8.50;82.30;;;;;;4175433;28;20063;-76
2022/04/21 06:02:40;;;;;;;15.25;10.45;;;8.50;82.10;;;;;;4171496;28;20169;-76
2022/04/21 06:04:42;;;;;;;13.85;10.38;;;8.60;81.70;;;;;;4183595;28;20081;-77
2022/04/21 06:06:43;;;;;;;11.88;10.27;;;8.70;81.60;;;;;;4175003;28;20058;-76
2022/04/21 06:08:46;;;;;;;11.60;10.48;;;8.70;81.20;;;;;;4175346;28;20088;-76
2022/04/21 06:10:47;;;;;;;11.48;10.38;;;8.80;80.90;;;;;;4161011;28;20061;-76
2022/04/21 06:12:49;;;;;;;13.50;10.63;;;8.80;81.00;;;;;;4174886;28;20243;-76
2022/04/21 06:14:52;;;;;;;12.60;10.85;;;8.90;81.30;;;;;;4178731;28;20172;-76
2022/04/21 06:16:53;;;;;;;13.07;10.75;;;8.90;80.70;;;;;;4176950;28;20872;-76
2022/04/21 06:18:55;;;;;;;16.13;11.43;;;8.90;80.10;;;;;;4178272;28;20133;-76
2022/04/21 06:20:57;;;;;;;12.35;10.80;;;8.90;80.10;;;;;;4162212;28;20100;-76
2022/04/21 06:22:59;;;;;;;12.45;10.73;;;8.90;80.10;;;;;;4159129;28;20148;-76
2022/04/21 06:25:00;;;;;;;18.38;12.15;;;8.90;79.90;;;;;;4175380;28;20152;-76
2022/04/21 06:27:03;;;;;;;11.50;10.45;;;8.80;80.60;;;;;;4163233;28;20097;-76
2022/04/21 06:29:05;;;;;;;12.85;11.55;;;8.80;79.20;;;;;;4177542;28;20068;-76
2022/04/21 06:31:07;;;;;;;15.20;12.10;;;8.80;80.00;;;;;;4177200;28;20565;-76
2022/04/21 06:33:09;;;;;;;12.98;11.52;;;8.80;79.20;;;;;;4163403;28;20058;-75
2022/04/21 06:35:11;;;;;;;19.52;11.23;;;8.80;78.40;;;;;;4176663;28;20268;-76
2022/04/21 06:37:13;;;;;;;14.18;11.38;;;8.80;78.50;;;;;;4176562;28;20144;-76
2022/04/21 06:39:19;;;;;;;12.15;10.02;;;8.90;78.30;;;;;;4173847;28;20061;-76
2022/04/21 06:41:21;;;;;;;10.77;9.82;;;9.00;78.50;;;;;;4159326;28;20067;-76
2022/04/21 06:48:04;;;;;;;16.60;10.40;;;9.30;79.60;;;;;;4174756;28;20137;-76
2022/04/21 06:50:06;;;;;;;15.80;12.48;;;9.40;78.80;;;;;;4179084;28;20056;-76
2022/04/21 06:52:08;;;;;;;12.27;10.77;;;9.30;76.20;;;;;;4175005;28;20069;-76
2022/04/21 06:54:10;;;;;;;13.85;10.93;;;9.30;76.10;;;;;;4179924;28;20057;-77
2022/04/21 06:56:13;;;;;;;12.52;10.93;;;9.30;75.60;;;;;;4160136;28;20624;-76
2022/04/21 06:58:14;;;;;;;13.55;11.32;;;9.30;75.30;;;;;;4175100;28;20061;-76
2022/04/21 07:00:16;;;;;;;11.95;10.75;;;9.30;74.80;;;;;;4174842;28;20926;-76
2022/04/21 07:02:28;;;;;;;12.63;10.50;;;9.30;75.00;;;;;;4173082;28;20201;-76
2022/04/21 07:04:30;;;;;;;12.25;11.05;;;9.30;74.90;;;;;;4176833;28;20065;-76
2022/04/21 07:06:32;;;;;;;13.13;11.68;;;9.20;75.10;;;;;;4177113;28;20097;-75
2022/04/21 07:08:34;;;;;;;13.30;11.60;;;9.20;75.50;;;;;;4177961;28;20158;-76
2022/04/21 07:10:36;;;;;;;13.55;11.38;;;9.40;75.70;;;;;;4173562;28;20881;-76
2022/04/21 07:12:38;;;;;;;12.85;10.27;;;9.50;75.50;;;;;;4173074;28;20080;-80
2022/04/21 07:14:41;;;;;;;12.95;11.52;;;9.60;74.50;;;;;;4173713;28;20061;-81
2022/04/21 07:16:43;;;;;;;17.90;11.38;;;9.70;75.30;;;;;;4169554;28;20916;-76
2022/04/21 07:18:45;;;;;;;13.85;11.23;;;9.80;75.50;;;;;;4178588;28;20164;-77
2022/04/21 07:20:47;;;;;;;12.07;10.85;;;9.80;74.20;;;;;;4157841;28;20050;-76
2022/04/21 07:22:49;;;;;;;13.02;11.48;;;9.90;73.90;;;;;;4176806;28;20058;-76
2022/04/21 07:24:55;;;;;;;14.32;11.88;;;9.90;73.20;;;;;;4173321;28;20064;-75
2022/04/21 07:26:56;;;;;;;13.73;11.32;;;9.90;74.30;;;;;;4175884;28;20050;-76
2022/04/21 07:28:58;;;;;;;11.55;10.35;;;9.90;71.90;;;;;;4177603;28;20096;-76
2022/04/21 07:31:00;;;;;;;14.85;11.85;;;9.80;72.30;;;;;;4158415;28;20596;-76
2022/04/21 07:33:02;;;;;;;13.48;11.38;;;9.90;72.90;;;;;;4177275;28;20062;-76
2022/04/21 07:35:05;;;;;;;13.77;12.38;;;9.90;73.50;;;;;;4175929;28;20772;-75
2022/04/21 07:37:10;;;;;;;13.85;12.10;;;10.00;73.20;;;;;;4159565;28;20085;-76
2022/04/21 07:39:12;;;;;;;13.40;10.50;;;9.90;72.60;;;;;;4175269;28;20054;-76
2022/04/21 07:41:15;;;;;;;15.57;11.80;;;10.00;71.80;;;;;;4172845;28;20766;-75
2022/04/21 07:43:17;;;;;;;11.65;10.55;;;10.10;72.00;;;;;;4177539;28;20849;-75
2022/04/21 07:45:19;;;;;;;12.57;11.10;;;10.20;72.10;;;;;;4173892;28;20042;-76
2022/04/21 07:47:20;;;;;;;13.98;10.85;;;10.30;71.80;;;;;;4180347;28;20077;-77
2022/04/21 07:51:43;;;;;;;14.55;9.73;;;10.50;70.10;;;;;;4185158;28;20104;-78
2022/04/21 07:53:44;;;;;;;10.00;8.98;;;10.50;70.20;;;;;;4175875;28;20054;-77
2022/04/21 07:55:52;;;;;;;11.98;10.68;;;10.50;69.10;;;;;;4185651;28;20041;-76
2022/04/21 07:57:56;;;;;;;10.75;9.60;;;10.50;69.90;;;;;;4186550;28;20053;-77
2022/04/21 07:59:57;;;;;;;11.20;9.48;;;10.60;70.10;;;;;;4175628;28;20116;-76
2022/04/21 08:01:59;;;;;;;12.48;10.68;;;10.60;70.20;;;;;;4171434;28;20058;-76
2022/04/21 08:04:04;;;;;;;10.57;9.57;;;10.70;69.50;;;;;;4176204;28;20058;-77
2022/04/21 08:06:05;;;;;;;18.20;11.30;;;10.70;69.90;;;;;;4170673;28;20117;-76
2022/04/21 08:08:11;;;;;;;11.73;10.23;;;10.50;70.60;;;;;;4181040;28;20089;-76
2022/04/21 08:10:13;;;;;;;11.68;9.48;;;10.60;70.80;;;;;;4177544;28;20218;-76
2022/04/21 08:12:15;;;;;;;13.82;10.77;;;10.70;69.80;;;;;;4176720;28;20057;-77
2022/04/21 08:14:17;;;;;;;12.48;10.50;;;10.80;69.90;;;;;;4175064;28;20101;-76
2022/04/21 08:16:19;;;;;;;13.13;11.13;;;10.90;70.70;;;;;;4174344;28;20148;-77
2022/04/21 08:18:21;;;;;;;13.45;11.43;;;10.90;70.50;;;;;;4178215;28;20100;-78
2022/04/21 08:20:24;;;;;;;12.43;10.68;;;10.90;71.80;;;;;;4201040;22;20053;-78
2022/04/21 08:22:27;;;;;;;14.35;11.07;;;10.90;72.90;;;;;;4178020;28;20066;-79
2022/04/21 08:34:07;;;;;;;13.00;10.57;;;11.20;69.00;;;;;;4167078;28;20058;-78
2022/04/21 08:36:09;;;;;;;13.63;11.15;;;11.30;70.20;;;;;;4147025;28;20084;-77
2022/04/21 08:38:12;;;;;;;9.30;8.40;;;11.20;69.60;;;;;;4152297;28;20090;-78
2022/04/21 08:40:15;;;;;;;10.18;8.82;;;11.30;67.70;;;;;;4160350;28;20120;-78
2022/04/21 08:42:19;;;;;;;12.02;8.85;;;11.40;68.50;;;;;;4159790;28;20080;-78
2022/04/21 08:44:21;;;;;;;9.48;8.40;;;11.60;68.70;;;;;;4167929;28;20053;-78
2022/04/21 08:46:25;;;;;;;16.70;8.88;;;11.70;67.70;;;;;;4173207;28;20061;-79
2022/04/21 08:48:27;;;;;;;9.90;8.88;;;11.70;66.20;;;;;;4151866;28;20062;-79
2022/04/21 08:50:31;;;;;;;10.25;7.75;;;11.80;66.20;;;;;;4165619;28;20062;-79
2022/04/21 08:52:34;;;;;;;9.20;8.30;;;11.90;65.80;;;;;;4174388;28;20125;-78
2022/04/21 08:54:36;;;;;;;9.10;8.00;;;11.90;65.80;;;;;;4160480;28;20062;-78
2022/04/21 08:56:39;;;;;;;9.98;7.88;;;11.80;65.10;;;;;;4155307;28;20389;-78
2022/04/21 08:58:41;;;;;;;8.82;7.82;;;11.90;65.50;;;;;;4149932;28;20054;-78
2022/04/21 09:00:44;;;;;;;9.43;7.75;;;11.90;65.10;;;;;;4163768;28;20065;-78
2022/04/21 09:02:48;;;;;;;10.35;9.25;;;12.00;65.70;;;;;;4149748;28;20097;-77
2022/04/21 09:04:50;;;;;;;9.88;8.30;;;12.10;64.90;;;;;;4171715;28;20034;-80
2022/04/21 09:06:52;;;;;;;12.48;7.90;;;12.10;65.40;;;;;;4169027;28;20816;-79
2022/04/21 09:09:20;;;;;;;7.65;6.68;;;12.20;65.20;;;;;;4168211;28;20485;-78
2022/04/21 09:11:22;;;;;;;8.50;7.05;;;12.20;64.10;;;;;;4152046;28;20054;-79
2022/04/21 09:13:36;;;;;;;8.07;6.90;;;12.20;61.50;;;;;;4158096;28;20812;-78
2022/04/21 09:15:43;;;;;;;7.43;6.72;;;12.00;61.40;;;;;;4151590;28;20046;-78
2022/04/21 09:17:59;;;;;;;8.18;7.38;;;12.00;60.50;;;;;;4167385;28;20050;-78
2022/04/21 09:20:01;;;;;;;9.27;7.35;;;12.10;60.00;;;;;;4154498;28;20088;-79
2022/04/21 09:22:03;;;;;;;7.93;7.22;;;12.10;60.70;;;;;;4151892;28;20101;-79
2022/04/21 09:24:25;;;;;;;7.93;7.10;;;12.20;60.30;;;;;;4151505;28;20805;-79
2022/04/21 09:26:28;;;;;;;11.30;7.95;;;12.30;60.30;;;;;;4171599;28;20057;-80
2022/04/21 09:28:30;;;;;;;8.13;7.32;;;12.40;61.30;;;;;;4150814;28;20108;-80
2022/04/21 09:30:32;;;;;;;7.20;6.50;;;12.30;62.30;;;;;;4148798;28;20084;-80
2022/04/21 09:32:34;;;;;;;11.20;8.25;;;12.30;61.50;;;;;;4168211;28;20160;-78
2022/04/21 09:34:36;;;;;;;7.85;7.07;;;12.30;61.40;;;;;;4159422;28;20057;-79
2022/04/21 09:36:40;;;;;;;8.80;7.95;;;12.40;62.80;;;;;;4173066;28;20113;-79
2022/04/21 09:38:55;;;;;;;7.47;6.78;;;12.60;62.70;;;;;;4154050;28;20868;-79
2022/04/21 09:41:17;;;;;;;8.55;7.20;;;12.70;62.90;;;;;;4144855;28;20057;-77
2022/04/21 09:43:27;;;;;;;8.10;7.43;;;12.90;60.40;;;;;;4159294;28;20852;-78
2022/04/21 09:48:01;;;;;;;10.10;7.68;;;13.00;60.70;;;;;;4163441;28;20750;-78
2022/04/21 09:50:12;;;;;;;9.73;7.88;;;13.00;60.60;;;;;;4164366;28;20082;-77
2022/04/21 09:52:31;;;;;;;10.68;7.85;;;13.00;60.10;;;;;;4150580;28;20659;-77
2022/04/21 09:54:34;;;;;;;13.25;8.38;;;12.80;61.10;;;;;;4161799;28;20062;-78
2022/04/21 09:56:44;;;;;;;10.02;8.25;;;12.80;62.30;;;;;;4157956;28;20164;-78
2022/04/21 09:58:47;;;;;;;9.50;7.32;;;12.80;61.70;;;;;;4146948;28;20137;-76
2022/04/21 10:00:48;;;;;;;8.73;7.85;;;12.80;62.10;;;;;;4152367;28;20098;-77
2022/04/21 10:02:51;;;;;;;10.82;7.82;;;12.60;63.10;;;;;;4153676;28;20058;-77
2022/04/21 10:04:56;;;;;;;12.68;8.18;;;12.60;62.30;;;;;;4160771;28;20734;-77
2022/04/21 10:06:58;;;;;;;10.27;8.20;;;12.50;63.20;;;;;;4156345;28;20424;-77
2022/04/21 10:09:00;;;;;;;9.82;7.93;;;12.50;63.20;;;;;;4150028;28;22123;-76
2022/04/21 10:11:04;;;;;;;8.85;7.97;;;12.50;63.50;;;;;;4161949;28;20148;-78
2022/04/21 10:13:07;;;;;;;9.63;8.80;;;12.50;63.90;;;;;;4144189;28;20073;-78
2022/04/21 10:15:10;;;;;;;8.35;7.30;;;12.50;64.00;;;;;;4161463;28;20880;-77
2022/04/21 10:17:12;;;;;;;9.60;7.40;;;12.50;63.40;;;;;;4158361;28;20097;-77
2022/04/21 10:19:19;;;;;;;8.90;7.78;;;12.60;63.70;;;;;;4160934;28;20131;-77
2022/04/21 10:21:33;;;;;;;8.57;7.78;;;12.80;62.50;;;;;;4156445;28;20062;-77
2022/04/21 10:23:36;;;;;;;7.93;7.20;;;13.00;61.30;;;;;;4157507;28;20065;-78
2022/04/21 10:25:40;;;;;;;7.18;6.57;;;13.00;61.60;;;;;;4153739;28;20160;-77
2022/04/21 10:27:45;;;;;;;7.00;6.30;;;13.20;61.70;;;;;;4146241;28;20104;-76
2022/04/21 10:29:51;;;;;;;7.88;7.10;;;13.40;61.10;;;;;;4143390;28;20063;-78
2022/04/21 10:31:57;;;;;;;7.88;7.10;;;13.60;61.00;;;;;;4159504;28;20058;-77
2022/04/21 10:34:07;;;;;;;8.30;7.50;;;13.80;60.50;;;;;;4162073;28;20901;-77
2022/04/21 10:36:41;;;;;;;10.10;6.68;;;13.90;59.30;;;;;;4163946;28;20065;-78
2022/04/21 10:38:43;;;;;;;6.85;6.25;;;13.90;60.90;;;;;;4164695;28;20057;-78
2022/04/21 10:41:02;;;;;;;7.00;6.35;;;13.80;59.70;;;;;;4156216;28;20099;-78
2022/04/21 10:43:04;;;;;;;6.95;6.35;;;13.70;59.50;;;;;;4147401;28;20070;-77
2022/04/21 10:45:13;;;;;;;6.80;6.05;;;13.60;59.40;;;;;;4147065;28;20050;-76
2022/04/21 10:47:33;;;;;;;7.80;7.13;;;13.70;59.60;;;;;;4153211;28;20058;-79
2022/04/21 10:50:15;;;;;;;7.05;6.45;;;13.70;59.10;;;;;;4150337;28;20272;-76
2022/04/21 10:57:16;;;;;;;6.90;6.30;;;14.00;59.20;;;;;;4132896;28;20064;-77
2022/04/21 10:59:18;;;;;;;6.45;5.82;;;14.40;59.30;;;;;;4153270;28;20805;-77
2022/04/21 11:01:28;;;;;;;5.95;5.50;;;14.70;58.30;;;;;;4150381;28;20058;-78
2022/04/21 11:03:33;;;;;;;9.05;6.40;;;15.00;57.90;;;;;;4161951;28;20070;-77
2022/04/21 11:05:38;;;;;;;6.35;5.75;;;14.80;57.10;;;;;;4169098;28;20062;-78
2022/04/21 11:07:52;;;;;;;8.38;4.85;;;14.50;57.80;;;;;;4191312;28;20037;-78
2022/04/21 11:09:55;;;;;;;5.55;5.15;;;14.50;58.60;;;;;;4186504;28;20096;-79
2022/04/21 11:12:37;;;;;;;5.15;4.75;;;14.30;58.40;;;;;;4144536;28;20056;-78
2022/04/21 11:14:39;;;;;;;5.05;4.55;;;14.20;58.80;;;;;;4160363;28;20260;-77
2022/04/21 11:16:41;;;;;;;6.20;5.65;;;14.30;59.50;;;;;;4156137;28;20062;-78
2022/04/21 11:18:45;;;;;;;6.22;5.43;;;14.10;59.10;;;;;;4173926;28;20128;-78
2022/04/21 11:20:48;;;;;;;5.45;5.05;;;14.10;59.90;;;;;;4164243;28;20061;-77
2022/04/21 11:22:51;;;;;;;8.68;7.80;;;13.80;59.50;;;;;;4160946;28;20129;-77
2022/04/21 11:24:55;;;;;;;6.07;5.57;;;13.70;59.90;;;;;;4150580;28;20051;-78
2022/04/21 11:26:59;;;;;;;6.50;5.97;;;13.50;61.00;;;;;;4176492;28;20069;-77